Time;durP1;ratioP1;P1;durP2;ratioP2;P2;SDS_P1;SDS_P2;PMS_P1;PMS_P2;Temp;Humidity;BMP_temperature;BMP_pressure;BME280_temperature;BME280_humidity;BME280_pressure;Samples;Min_cycle;Max_cycle;Signal;HPM_P1;HPM_P2
2021/03/15 00:01:00;;;;;;;0.10;0.10;;;5.00;96.30;;;7.68;85.20;100966.91;4966581;28;96979;-69
2021/03/15 00:03:34;;;;;;;0.10;0.10;;;5.00;96.30;;;7.70;84.98;100963.97;4971101;28;98534;-69
2021/03/15 00:06:05;;;;;;;0.10;0.10;;;5.00;96.30;;;7.70;85.24;100962.09;4970558;28;98735;-69
2021/03/15 00:08:34;;;;;;;0.20;0.20;;;5.00;96.30;;;7.72;85.39;100961.84;4970574;28;97316;-69
2021/03/15 00:11:04;;;;;;;0.10;0.10;;;5.00;96.30;;;7.73;85.55;100960.75;4969450;28;96860;-69
2021/03/15 00:13:32;;;;;;;0.10;0.10;;;5.00;96.30;;;7.74;85.42;100955.13;4985383;28;96912;-69
2021/03/15 00:15:59;;;;;;;0.30;0.30;;;5.00;96.30;;;7.72;85.34;100954.63;4967922;28;97677;-69
2021/03/15 00:18:32;;;;;;;0.10;0.10;;;5.00;96.30;;;7.71;85.39;100952.25;4967736;28;96765;-69
2021/03/15 00:21:00;;;;;;;0.10;0.10;;;5.00;96.20;;;7.71;85.05;100955.69;4969807;28;97003;-69
2021/03/15 00:23:30;;;;;;;0.10;0.10;;;5.00;96.30;;;7.70;85.50;100953.31;4968762;28;97787;-69
2021/03/15 00:25:59;;;;;;;0.10;0.10;;;4.90;96.20;;;7.71;85.05;100950.34;4969728;28;97337;-69
2021/03/15 00:28:31;;;;;;;0.10;0.10;;;4.90;96.30;;;7.71;85.12;100946.91;4953748;28;96846;-69
2021/03/15 00:30:59;;;;;;;0.10;0.10;;;4.90;96.30;;;7.72;85.45;100954.63;4967600;28;97340;-69
2021/03/15 00:33:30;;;;;;;0.10;0.10;;;5.00;96.30;;;7.75;85.50;100946.06;4967300;28;96779;-69
2021/03/15 00:36:14;;;;;;;0.10;0.10;;;5.00;96.40;;;7.78;85.46;100942.84;4968263;28;96732;-69
2021/03/15 00:38:42;;;;;;;0.30;0.30;;;5.00;96.40;;;7.80;85.18;100942.56;4967779;28;97199;-69
2021/03/15 00:41:10;;;;;;;0.10;0.10;;;5.00;96.40;;;7.81;85.53;100942.31;4969614;28;96954;-69
2021/03/15 00:43:39;;;;;;;0.10;0.10;;;5.00;96.40;;;7.83;85.51;100945.50;4967371;28;97833;-69
2021/03/15 00:46:06;;;;;;;0.10;0.10;;;5.00;96.40;;;7.85;85.35;100948.66;4968763;28;97687;-69
2021/03/15 00:48:34;;;;;;;0.32;0.32;;;5.00;96.40;;;7.87;85.06;100949.19;4969785;28;96735;-69
2021/03/15 00:51:05;;;;;;;0.17;0.17;;;5.10;96.50;;;7.91;85.21;100930.75;4971886;28;96710;-69
2021/03/15 00:53:33;;;;;;;0.10;0.10;;;5.10;96.50;;;7.84;85.31;100946.28;4972255;28;97814;-69
2021/03/15 00:56:03;;;;;;;0.20;0.20;;;5.10;96.40;;;7.84;85.40;100943.59;4971731;28;96856;-69
2021/03/15 00:58:33;;;;;;;0.10;0.10;;;5.10;96.40;;;7.87;85.63;100951.03;4972350;28;96823;-69
2021/03/15 01:01:03;;;;;;;1.15;0.95;;;5.10;96.40;;;7.90;85.50;100942.47;4969376;28;97290;-69
2021/03/15 01:03:52;;;;;;;0.10;0.10;;;5.10;96.40;;;7.90;84.96;100945.97;4972273;28;96860;-69
2021/03/15 01:06:30;;;;;;;0.10;0.10;;;5.10;96.40;;;7.97;85.28;100942.97;4970560;28;97727;-69
2021/03/15 01:09:06;;;;;;;0.45;0.45;;;5.10;96.50;;;7.99;85.26;100948.84;4972007;28;96643;-69
2021/03/15 01:11:50;;;;;;;0.30;0.30;;;5.20;96.70;;;8.01;85.22;100952.03;4983445;28;96875;-69
2021/03/15 01:14:19;;;;;;;0.17;0.17;;;5.20;96.50;;;8.04;85.26;100946.13;4969616;28;98360;-69
2021/03/15 01:17:12;;;;;;;0.10;0.10;;;5.20;96.50;;;8.06;84.91;100943.97;4972383;28;98732;-69
2021/03/15 01:19:44;;;;;;;0.47;0.47;;;5.20;96.50;;;8.07;85.19;100943.66;4972586;28;96804;-69
2021/03/15 01:22:12;;;;;;;0.10;0.10;;;5.20;96.50;;;8.08;85.35;100931.91;4973725;28;96744;-69
2021/03/15 01:24:40;;;;;;;0.25;0.25;;;5.20;96.50;;;8.13;84.33;100931.91;4972126;28;98042;-69
2021/03/15 01:27:08;;;;;;;0.15;0.15;;;5.20;96.50;;;8.17;84.86;100927.63;4972383;28;96736;-69
2021/03/15 01:29:36;;;;;;;0.10;0.10;;;5.20;96.50;;;8.20;84.42;100927.06;4970980;28;96830;-69
2021/03/15 01:32:05;;;;;;;0.47;0.40;;;5.20;96.50;;;8.19;84.78;100925.47;4972309;28;97243;-69
2021/03/15 01:34:33;;;;;;;0.20;0.20;;;5.20;96.50;;;8.18;85.05;100923.06;4970701;28;98083;-69
2021/03/15 01:37:05;;;;;;;0.10;0.10;;;5.30;96.50;;;8.20;84.55;100919.06;4971283;28;98022;-69
2021/03/15 01:39:33;;;;;;;0.10;0.10;;;5.30;96.50;;;8.24;84.10;100920.06;4955206;28;96817;-69
2021/03/15 01:42:03;;;;;;;0.30;0.30;;;5.30;96.50;;;8.22;83.83;100914.22;4971066;28;97442;-69
2021/03/15 01:44:32;;;;;;;1.58;1.08;;;5.20;96.50;;;8.20;83.76;100913.72;4972460;28;96867;-69
2021/03/15 01:47:02;;;;;;;0.20;0.20;;;5.30;96.50;;;8.22;84.37;100911.56;4971824;28;96715;-69
2021/03/15 01:49:32;;;;;;;0.52;0.52;;;5.20;96.50;;;8.14;84.59;100898.81;4971810;28;96863;-69
2021/03/15 01:52:00;;;;;;;0.30;0.30;;;5.20;96.50;;;8.09;84.57;100898.81;4972679;28;96946;-69
2021/03/15 01:54:31;;;;;;;0.10;0.10;;;5.20;96.50;;;8.10;85.05;100903.09;4968607;28;97231;-69
2021/03/15 01:56:59;;;;;;;0.22;0.22;;;5.20;96.50;;;8.09;84.98;100906.81;4969395;28;98152;-69
2021/03/15 01:59:32;;;;;;;0.20;0.20;;;5.30;96.50;;;8.08;84.81;100905.25;4970913;28;96839;-69
2021/03/15 02:02:03;;;;;;;0.00;0.00;;;5.30;96.50;;;8.06;84.98;100907.41;4971166;28;97400;-69
2021/03/15 02:04:32;;;;;;;0.20;0.20;;;5.20;96.50;;;8.09;84.36;100909.50;4971864;28;97889;-69
2021/03/15 02:06:59;;;;;;;0.20;0.20;;;5.30;96.50;;;8.12;84.98;100911.63;4969630;28;96958;-69
2021/03/15 02:09:32;;;;;;;0.65;0.65;;;5.30;96.50;;;8.14;85.38;100920.16;4973135;28;97522;-69
2021/03/15 02:12:31;;;;;;;0.10;0.10;;;5.30;96.60;;;8.23;84.78;100913.16;4971923;28;96778;-69
2021/03/15 02:15:17;;;;;;;0.10;0.10;;;5.30;96.60;;;8.25;84.39;100915.53;4970877;28;97438;-69
2021/03/15 02:18:03;;;;;;;0.10;0.10;;;5.30;96.50;;;8.12;84.75;100908.16;4970973;28;97753;-69
2021/03/15 02:21:38;;;;;;;0.00;0.00;;;5.30;96.50;;;8.08;84.84;100896.44;4970927;28;97364;-69
2021/03/15 02:24:17;;;;;;;0.38;0.38;;;5.30;96.50;;;8.05;85.04;100892.47;4969158;28;96901;-69
2021/03/15 02:27:57;;;;;;;0.22;0.22;;;5.30;96.50;;;8.03;84.73;100894.63;4971888;28;98761;-69
2021/03/15 02:31:22;;;;;;;0.32;0.32;;;5.20;96.50;;;8.04;85.03;100892.75;4967564;28;97723;-69
2021/03/15 02:34:55;;;;;;;0.10;0.10;;;5.20;96.50;;;8.05;84.70;100895.13;4967903;28;97105;-69
2021/03/15 02:37:33;;;;;;;0.10;0.10;;;5.20;96.50;;;8.04;84.72;100893.53;4972111;28;97351;-69
2021/03/15 02:40:10;;;;;;;0.17;0.17;;;5.20;96.50;;;8.04;84.84;100896.22;4967439;28;98095;-69
2021/03/15 02:42:43;;;;;;;0.30;0.30;;;5.20;96.50;;;8.04;84.55;100888.19;4970696;28;96806;-69
2021/03/15 02:45:13;;;;;;;1.75;0.30;;;5.20;96.50;;;8.00;84.57;100891.72;4969244;28;96806;-69
2021/03/15 02:47:44;;;;;;;0.20;0.20;;;5.20;96.50;;;7.98;85.32;100893.88;4971736;28;97143;-69
2021/03/15 02:50:15;;;;;;;0.75;0.75;;;5.20;96.50;;;8.10;84.33;100887.06;4970701;28;97934;-69
2021/03/15 02:52:48;;;;;;;0.30;0.30;;;5.20;96.50;;;8.04;84.68;100879.41;4968771;28;97927;-69
2021/03/15 02:55:21;;;;;;;0.80;0.30;;;5.20;96.50;;;8.07;84.73;100884.97;4970105;28;97214;-69
2021/03/15 02:57:52;;;;;;;0.20;0.20;;;5.20;96.50;;;8.10;84.58;100875.63;4966826;28;96998;-69
2021/03/15 03:00:22;;;;;;;0.28;0.28;;;5.20;96.50;;;8.09;84.39;100872.13;4970033;28;97817;-69
2021/03/15 03:02:51;;;;;;;0.20;0.20;;;5.20;96.50;;;8.07;84.44;100876.97;4967989;28;97941;-69
2021/03/15 03:05:21;;;;;;;0.28;0.28;;;5.20;96.50;;;8.05;84.19;100876.44;4971199;28;97367;-69
2021/03/15 03:07:54;;;;;;;0.20;0.20;;;5.20;96.50;;;8.04;84.51;100866.84;4970138;28;97028;-69
2021/03/15 03:10:24;;;;;;;0.63;0.63;;;5.10;96.50;;;8.03;83.95;100875.94;4968248;28;96889;-69
2021/03/15 03:12:54;;;;;;;0.20;0.20;;;5.20;96.50;;;7.99;84.20;100877.59;4953346;28;100534;-70
2021/03/15 03:15:31;;;;;;;0.20;0.20;;;5.10;96.50;;;7.99;84.09;100874.91;4968470;28;97185;-69
2021/03/15 03:18:05;;;;;;;0.20;0.20;;;5.10;96.50;;;7.97;84.38;100879.75;4969956;28;96864;-69
2021/03/15 03:20:34;;;;;;;0.20;0.20;;;5.10;96.50;;;7.95;84.66;100883.75;4969669;28;97077;-69
2021/03/15 03:23:06;;;;;;;0.10;0.10;;;5.10;96.50;;;7.91;83.84;100874.72;4970670;28;98002;-69
2021/03/15 03:25:35;;;;;;;0.47;0.45;;;5.10;96.70;;;7.79;83.91;100871.63;4970665;28;96767;-69
2021/03/15 03:28:05;;;;;;;0.20;0.20;;;5.10;96.40;;;7.69;84.14;100879.72;4984835;28;96882;-69
2021/03/15 03:30:38;;;;;;;0.17;0.17;;;5.00;96.30;;;7.65;83.62;100886.66;4969263;28;97391;-69
2021/03/15 03:33:09;;;;;;;0.47;0.47;;;5.00;96.20;;;7.57;83.02;100889.94;4970882;28;98440;-69
2021/03/15 03:35:38;;;;;;;0.70;0.25;;;4.90;96.10;;;7.51;83.21;100887.59;4970190;28;96732;-69
2021/03/15 03:38:06;;;;;;;0.45;0.45;;;4.80;96.00;;;7.42;83.09;100894.56;4950551;28;97039;-69
2021/03/15 03:40:33;;;;;;;0.55;0.55;;;4.70;95.90;;;7.44;83.97;100897.75;4983299;28;98972;-69
2021/03/15 03:43:02;;;;;;;0.20;0.20;;;4.70;95.90;;;7.46;83.96;100899.09;4967258;28;97715;-69
2021/03/15 03:45:31;;;;;;;0.30;0.30;;;4.70;96.00;;;7.56;84.06;100900.88;4969941;28;96807;-69
2021/03/15 03:48:00;;;;;;;0.35;0.35;;;4.70;96.10;;;7.61;85.03;100908.84;4969703;28;96896;-69
2021/03/15 03:50:35;;;;;;;;;;;4.70;96.20;;;7.70;84.55;100903.44;4972129;28;97970;-69
2021/03/15 03:53:13;;;;;;;0.10;0.10;;;4.70;96.20;;;7.75;84.24;100908.72;4968105;28;97770;-69
2021/03/15 03:55:56;;;;;;;0.45;0.45;;;4.80;96.30;;;7.77;84.97;100919.13;4969126;28;97312;-69
2021/03/15 03:58:24;;;;;;;;;;;4.80;96.40;;;7.83;84.41;100916.16;4970839;28;97496;-69
2021/03/15 04:00:56;;;;;;;0.13;0.13;;;4.80;96.40;;;7.84;84.88;100917.75;4969453;28;96814;-70
2021/03/15 04:03:28;;;;;;;0.22;0.22;;;4.80;96.40;;;7.86;84.09;100918.25;4969405;28;97065;-69
2021/03/15 04:06:05;;;;;;;0.30;0.30;;;4.90;96.40;;;7.91;84.51;100923.53;4969675;28;96972;-70
2021/03/15 04:08:46;;;;;;;0.10;0.10;;;4.90;96.50;;;7.95;84.64;100927.25;4970244;28;96689;-70
2021/03/15 04:11:14;;;;;;;0.20;0.20;;;4.90;96.50;;;7.82;84.69;100921.75;4985437;28;96784;-70
2021/03/15 04:13:48;;;;;;;2.22;0.85;;;5.00;96.50;;;7.83;85.02;100912.66;4967568;28;97353;-70
2021/03/15 04:16:18;;;;;;;0.10;0.10;;;5.00;96.50;;;7.83;84.85;100918.81;4969515;28;97131;-69
2021/03/15 04:18:50;;;;;;;0.20;0.20;;;5.00;96.50;;;7.83;84.92;100923.34;4969520;28;96718;-70
2021/03/15 04:21:26;;;;;;;0.65;0.65;;;5.00;96.50;;;7.87;84.99;100921.69;4968686;28;97057;-70
2021/03/15 04:23:56;;;;;;;0.35;0.35;;;5.00;96.50;;;7.77;85.23;100919.13;4969899;28;97464;-70
2021/03/15 04:26:26;;;;;;;0.10;0.10;;;5.00;96.50;;;7.65;84.06;100923.22;4967864;28;96748;-70
2021/03/15 04:28:55;;;;;;;0.10;0.10;;;5.00;96.50;;;7.55;84.31;100928.63;4970411;28;96881;-70
2021/03/15 04:31:26;;;;;;;0.10;0.10;;;4.90;96.40;;;7.42;84.34;100931.88;4968684;28;97865;-70
2021/03/15 04:33:56;;;;;;;0.10;0.10;;;4.90;96.30;;;7.33;83.75;100934.31;4970375;28;98248;-70
2021/03/15 04:36:26;;;;;;;0.10;0.10;;;4.70;96.20;;;7.31;83.31;100938.34;4969433;28;96693;-70
2021/03/15 04:38:57;;;;;;;0.88;0.85;;;4.70;96.10;;;7.32;83.74;100942.63;4968484;28;96894;-70
2021/03/15 04:41:26;;;;;;;0.25;0.25;;;4.60;96.00;;;7.30;83.34;100945.53;4967720;28;96990;-70
2021/03/15 04:43:54;;;;;;;0.68;0.68;;;4.60;95.90;;;7.25;84.05;100950.13;4965858;28;97774;-70
2021/03/15 04:46:22;;;;;;;0.10;0.10;;;4.60;96.00;;;7.38;84.27;100954.84;4969215;28;97280;-70
2021/03/15 04:48:51;;;;;;;0.43;0.43;;;4.60;96.00;;;7.46;84.16;100954.25;4968181;28;96698;-70
2021/03/15 04:51:19;;;;;;;0.10;0.10;;;4.60;96.10;;;7.56;84.63;100954.22;4969892;28;99047;-70
2021/03/15 04:53:48;;;;;;;0.10;0.10;;;4.60;96.20;;;7.60;84.59;100963.25;4967211;28;96702;-70
2021/03/15 04:56:19;;;;;;;0.90;0.55;;;4.60;96.30;;;7.68;84.26;100968.81;4969294;28;97301;-70
2021/03/15 04:58:53;;;;;;;1.85;1.75;;;4.70;96.30;;;7.74;84.11;100973.03;4967930;28;97290;-70
2021/03/15 05:01:27;;;;;;;0.32;0.32;;;4.70;96.40;;;7.78;84.02;100974.06;4966130;28;98205;-70
2021/03/15 05:03:58;;;;;;;0.20;0.20;;;4.70;96.40;;;7.75;84.51;100964.72;4968609;28;98817;-70
2021/03/15 05:06:28;;;;;;;0.20;0.20;;;4.80;96.50;;;7.77;83.98;100973.25;4969411;28;96758;-70
2021/03/15 05:08:59;;;;;;;0.10;0.10;;;4.80;96.50;;;7.77;84.28;100967.91;4966803;28;97633;-69
2021/03/15 05:11:36;;;;;;;0.10;0.10;;;4.80;96.50;;;7.78;84.49;100969.50;4966602;28;97122;-70
2021/03/15 05:14:06;;;;;;;;;;;4.80;96.50;;;7.80;84.39;100967.34;4969963;28;97809;-70
2021/03/15 05:16:37;;;;;;;0.30;0.30;;;4.90;96.50;;;7.82;84.50;100978.56;4970146;28;96889;-70
2021/03/15 05:19:10;;;;;;;1.10;0.63;;;4.90;96.50;;;7.85;84.39;100978.00;4967765;28;96872;-70
2021/03/15 05:21:42;;;;;;;0.20;0.20;;;4.90;96.60;;;7.84;84.55;100979.09;4984793;28;96813;-70
2021/03/15 05:24:12;;;;;;;1.85;0.43;;;4.90;96.60;;;7.75;83.62;100980.72;4967603;28;97601;-69
2021/03/15 05:26:42;;;;;;;0.20;0.20;;;4.90;96.50;;;7.68;83.00;100973.31;4967370;28;97368;-70
2021/03/15 05:29:15;;;;;;;0.20;0.20;;;4.80;96.40;;;7.60;83.20;100974.69;4967935;28;96823;-70
2021/03/15 05:31:48;;;;;;;1.55;1.38;;;4.80;96.40;;;7.54;83.50;100972.34;4968727;28;97608;-70
2021/03/15 05:34:19;;;;;;;0.20;0.20;;;4.70;96.30;;;7.43;83.21;100970.78;4967136;28;96745;-70
2021/03/15 05:36:50;;;;;;;0.10;0.10;;;4.70;96.20;;;7.40;83.00;100977.50;4969703;28;97493;-70
2021/03/15 05:39:18;;;;;;;0.20;0.20;;;4.60;96.10;;;7.35;83.81;100977.50;4971345;28;96733;-70
2021/03/15 05:42:12;;;;;;;1.75;1.10;;;4.60;96.10;;;7.31;82.77;100973.78;4969943;28;97986;-70
2021/03/15 05:45:22;;;;;;;0.17;0.17;;;4.50;96.00;;;7.30;83.13;100979.41;4971213;28;97901;-70
2021/03/15 05:48:43;;;;;;;1.27;0.75;;;4.50;96.00;;;7.25;83.38;100987.44;4971090;28;96899;-70
2021/03/15 05:52:03;;;;;;;0.50;0.50;;;4.40;95.90;;;7.21;83.87;100994.38;4971858;28;97281;-70
2021/03/15 05:55:21;;;;;;;0.10;0.10;;;4.40;95.90;;;7.23;82.82;100992.25;4985605;28;97897;-70
2021/03/15 05:59:06;;;;;;;0.10;0.10;;;4.40;95.90;;;7.21;82.41;101002.38;4951852;28;96930;-70
2021/03/15 06:02:20;;;;;;;1.38;1.27;;;4.40;95.90;;;7.24;83.09;101001.81;4971386;28;96848;-70
2021/03/15 06:05:20;;;;;;;0.32;0.32;;;4.40;95.90;;;7.38;83.54;101000.97;4968293;28;96935;-70
2021/03/15 06:07:51;;;;;;;0.30;0.30;;;4.40;96.00;;;7.46;83.68;100996.91;4971538;28;96839;-70
2021/03/15 06:10:52;;;;;;;0.95;0.85;;;4.50;96.10;;;7.59;84.33;100997.09;4969318;28;97473;-70
2021/03/15 06:13:22;;;;;;;3.72;1.48;;;4.50;96.20;;;7.67;84.03;101007.22;4970539;28;96749;-70
2021/03/15 06:15:51;;;;;;;0.20;0.20;;;4.60;96.30;;;7.75;84.42;101004.72;4969888;28;96722;-70
2021/03/15 06:18:19;;;;;;;0.20;0.20;;;4.60;96.30;;;7.81;84.39;101009.00;4970829;28;99215;-70
2021/03/15 06:20:48;;;;;;;0.30;0.30;;;4.70;96.40;;;7.86;83.96;101011.63;4970409;28;97582;-70
2021/03/15 06:23:18;;;;;;;0.20;0.20;;;4.80;96.40;;;7.97;84.40;101010.47;4970525;28;97736;-70
2021/03/15 06:25:48;;;;;;;0.40;0.40;;;4.80;96.40;;;8.09;83.74;101018.13;4971024;28;96684;-70
2021/03/15 06:28:18;;;;;;;0.10;0.10;;;4.90;96.50;;;8.22;83.30;101012.97;4965721;28;97869;-70
2021/03/15 06:30:51;;;;;;;0.15;0.15;;;5.00;96.40;;;8.32;83.11;101018.22;4968719;28;97641;-70
2021/03/15 06:33:20;;;;;;;0.10;0.10;;;5.10;96.40;;;8.61;82.82;101018.25;4968008;28;98243;-70
2021/03/15 06:35:55;;;;;;;0.22;0.22;;;5.30;96.40;;;8.87;82.07;101032.97;4971921;28;96822;-70
2021/03/15 06:38:25;;;;;;;0.10;0.10;;;5.40;96.30;;;8.88;82.41;101032.66;4967804;28;96827;-70
2021/03/15 06:41:02;;;;;;;0.15;0.15;;;5.50;96.20;;;9.01;81.72;101032.00;4967993;28;97964;-70
2021/03/15 06:43:32;;;;;;;1.75;0.52;;;5.60;96.10;;;9.28;81.24;101037.56;4969258;28;96770;-70
2021/03/15 06:46:03;;;;;;;0.10;0.10;;;5.70;96.00;;;9.58;80.67;101035.31;4971042;28;97244;-70
2021/03/15 06:48:32;;;;;;;0.20;0.20;;;5.90;95.90;;;9.82;80.27;101038.75;4970838;28;97636;-69
2021/03/15 06:51:00;;;;;;;0.20;0.20;;;6.00;95.80;;;9.94;80.28;101033.75;4970180;28;97727;-69
2021/03/15 06:53:38;;;;;;;1.33;0.80;;;6.20;95.70;;;10.50;79.03;101044.41;4969080;28;96723;-69
2021/03/15 06:56:13;;;;;;;0.45;0.45;;;6.40;95.50;;;11.00;78.16;101045.13;4968141;28;97519;-69
2021/03/15 06:58:52;;;;;;;0.25;0.25;;;6.70;95.30;;;11.44;77.71;101052.56;4967219;28;96908;-70
2021/03/15 07:01:23;;;;;;;3.50;1.08;;;7.00;95.00;;;11.71;76.59;101050.69;4969868;28;97519;-70
2021/03/15 07:04:06;;;;;;;10.32;0.75;;;7.30;94.70;;;11.59;77.81;101050.41;4971393;28;97857;-70
2021/03/15 07:06:39;;;;;;;0.30;0.30;;;7.40;94.60;;;12.78;74.16;101049.47;4967208;28;96915;-70
2021/03/15 07:09:14;;;;;;;7.75;1.67;;;7.80;94.50;;;12.10;76.38;101044.72;4969396;28;97901;-70
2021/03/15 07:11:45;;;;;;;0.43;0.43;;;8.00;94.10;;;11.76;78.25;101055.16;4969149;28;97678;-70
2021/03/15 07:14:24;;;;;;;6.82;1.35;;;8.10;94.10;;;11.74;78.01;101060.03;4966136;28;97209;-70
2021/03/15 07:16:59;;;;;;;16.85;1.13;;;8.10;94.20;;;11.56;79.24;101066.28;4967121;28;97483;-70
2021/03/15 07:19:34;;;;;;;0.57;0.57;;;8.10;94.20;;;11.46;79.30;101061.94;4964456;28;97106;-70
2021/03/15 07:22:20;;;;;;;18.45;4.30;;;8.10;94.20;;;11.24;80.11;101074.44;4965881;28;97972;-71
2021/03/15 07:25:08;;;;;;;0.10;0.10;;;8.10;94.50;;;11.07;80.48;101069.63;4962128;28;97631;-73
2021/03/15 07:27:39;;;;;;;0.10;0.10;;;8.00;94.30;;;11.15;80.07;101073.53;4968993;28;96743;-69
2021/03/15 07:30:33;;;;;;;0.10;0.10;;;8.00;94.40;;;11.44;79.99;101082.09;4967823;28;98998;-70
2021/03/15 07:33:20;;;;;;;0.70;0.70;;;8.00;94.50;;;11.66;78.80;101068.78;4965149;28;97725;-70
2021/03/15 07:35:51;;;;;;;0.10;0.10;;;8.10;94.50;;;11.71;79.03;101068.69;4966550;28;96761;-69
2021/03/15 07:38:33;;;;;;;0.00;0.00;;;8.20;94.40;;;11.98;78.31;101080.16;4951479;28;96792;-69
2021/03/15 07:41:13;;;;;;;0.10;0.10;;;8.20;94.40;;;12.37;77.71;101080.34;4967012;28;98279;-69
2021/03/15 07:43:42;;;;;;;0.00;0.00;;;8.40;94.30;;;12.57;76.42;101090.59;4937299;28;96864;-70
2021/03/15 07:46:18;;;;;;;0.10;0.10;;;8.60;94.00;;;11.96;79.03;101086.94;4966456;28;98072;-70
2021/03/15 07:48:48;;;;;;;0.03;0.03;;;8.60;93.90;;;11.51;79.87;101098.56;4963621;28;96878;-70
2021/03/15 07:51:28;;;;;;;3.20;0.35;;;8.50;94.00;;;11.24;80.40;101098.56;4966005;28;97949;-70
2021/03/15 07:54:06;;;;;;;0.70;0.70;;;8.30;94.10;;;11.12;81.24;101099.06;4962794;28;97929;-70
2021/03/15 07:56:34;;;;;;;0.13;0.08;;;8.20;94.20;;;11.04;81.25;101105.09;4970680;28;96811;-70
2021/03/15 07:59:04;;;;;;;0.25;0.25;;;8.10;94.30;;;11.10;80.73;101103.91;4971886;28;96876;-70
2021/03/15 08:01:34;;;;;;;3.33;0.40;;;8.10;94.40;;;11.53;79.76;101115.97;4971761;28;98155;-70
2021/03/15 08:04:05;;;;;;;0.10;0.10;;;8.10;94.50;;;11.90;78.94;101107.72;4972420;28;97749;-70
2021/03/15 08:06:33;;;;;;;0.10;0.10;;;8.20;94.50;;;12.28;78.04;101110.94;4972095;28;96693;-69
2021/03/15 08:09:03;;;;;;;2.40;0.65;;;8.40;94.50;;;12.30;78.05;101117.56;4969020;28;96946;-69
2021/03/15 08:11:32;;;;;;;0.10;0.10;;;8.60;94.30;;;12.08;79.01;101116.75;4968647;28;98092;-70
2021/03/15 08:14:04;;;;;;;7.45;2.75;;;8.60;94.10;;;11.91;79.57;101125.41;4969755;28;97693;-69
2021/03/15 08:16:34;;;;;;;0.20;0.20;;;8.60;94.10;;;11.61;79.95;101131.41;4956979;28;97239;-69
2021/03/15 08:19:06;;;;;;;0.03;0.03;;;8.50;94.10;;;11.53;80.83;101132.09;4970284;28;96992;-70
2021/03/15 08:21:38;;;;;;;0.10;0.10;;;8.50;94.20;;;12.23;78.88;101127.94;4970450;28;97180;-69
2021/03/15 08:24:07;;;;;;;0.00;0.00;;;8.60;94.30;;;12.29;78.58;101132.09;4970438;28;97609;-70
2021/03/15 08:26:38;;;;;;;0.00;0.00;;;8.70;94.20;;;11.85;79.61;101132.00;4970249;28;97474;-69
2021/03/15 08:29:07;;;;;;;0.10;0.10;;;8.70;94.20;;;11.61;81.01;101139.47;4968070;28;96983;-69
2021/03/15 08:31:42;;;;;;;0.25;0.25;;;8.60;94.30;;;11.96;80.71;101130.69;4970226;28;97976;-69
2021/03/15 08:34:16;;;;;;;0.10;0.10;;;8.70;94.30;;;12.70;78.00;101133.53;4971847;28;96860;-70
2021/03/15 08:36:46;;;;;;;0.10;0.10;;;8.90;94.30;;;12.90;76.94;101137.63;4969333;28;96901;-69
2021/03/15 08:39:40;;;;;;;0.47;0.47;;;9.10;94.00;;;12.63;78.14;101135.88;4968306;28;96952;-69
2021/03/15 08:42:28;;;;;;;0.10;0.10;;;9.20;93.80;;;13.37;76.67;101143.19;4967204;28;97446;-69
2021/03/15 08:45:29;;;;;;;2.08;0.95;;;9.40;93.90;;;14.43;73.43;101137.13;4969137;28;97500;-69
2021/03/15 08:48:00;;;;;;;0.10;0.10;;;9.80;93.50;;;13.86;74.96;101150.16;4968676;28;97177;-69
2021/03/15 08:50:59;;;;;;;0.10;0.10;;;10.00;93.10;;;13.42;77.13;101142.22;4961094;28;98010;-69
2021/03/15 08:53:51;;;;;;;0.20;0.20;;;10.10;93.00;;;12.99;78.70;101141.22;4968204;28;97874;-69
2021/03/15 08:56:40;;;;;;;0.00;0.00;;;10.00;93.00;;;12.59;79.69;101151.03;4967661;28;97878;-69
2021/03/15 08:59:10;;;;;;;0.00;0.00;;;9.80;93.20;;;12.34;80.86;101150.00;4967694;28;96804;-69
2021/03/15 09:01:58;;;;;;;1.17;0.47;;;9.60;93.40;;;12.23;80.87;101149.44;4970686;28;96962;-69
2021/03/15 09:04:43;;;;;;;2.10;1.08;;;9.50;93.50;;;12.37;80.80;101158.28;4969595;28;98095;-69
2021/03/15 09:07:46;;;;;;;0.10;0.10;;;9.50;93.60;;;12.52;80.66;101161.41;4969104;28;97673;-69
2021/03/15 09:10:45;;;;;;;0.00;0.00;;;9.50;93.70;;;12.72;79.83;101141.31;4968289;28;97148;-69
2021/03/15 09:13:32;;;;;;;0.40;0.40;;;9.50;93.70;;;12.90;79.09;101153.75;4973894;28;97640;-69
2021/03/15 09:16:06;;;;;;;5.47;1.55;;;9.60;93.80;;;13.12;78.63;101148.41;4974545;28;99510;-69
2021/03/15 09:18:51;;;;;;;0.05;0.05;;;9.70;93.60;;;13.27;78.48;101164.16;4972013;28;98778;-69
2021/03/15 09:21:54;;;;;;;0.55;0.55;;;9.80;93.40;;;13.08;79.08;101150.94;4972622;28;96796;-69
2021/03/15 09:24:55;;;;;;;0.00;0.00;;;9.90;93.30;;;13.02;78.91;101160.22;4970791;28;97386;-69
2021/03/15 09:27:38;;;;;;;1.95;0.70;;;9.80;93.10;;;12.99;79.08;101168.91;4910271;28;97266;-69
2021/03/15 09:30:16;;;;;;;14.43;0.52;;;9.80;93.10;;;13.25;78.60;101166.38;4966530;28;97701;-69
2021/03/15 09:32:47;;;;;;;0.10;0.10;;;9.90;93.10;;;13.41;77.82;101160.28;4975113;28;96862;-69
2021/03/15 09:35:35;;;;;;;1.73;1.63;;;10.00;93.10;;;14.08;75.51;101167.78;4969829;28;97040;-69
2021/03/15 09:38:07;;;;;;;0.85;0.85;;;10.10;93.00;;;13.88;76.23;101170.28;4972118;28;97151;-69
2021/03/15 09:40:39;;;;;;;0.10;0.10;;;10.20;92.90;;;14.22;75.77;101175.78;4968055;28;97155;-69
2021/03/15 09:43:33;;;;;;;0.55;0.52;;;10.40;92.80;;;13.87;77.08;101179.47;4971129;28;97540;-69
2021/03/15 09:46:09;;;;;;;0.08;0.08;;;10.50;92.80;;;14.16;76.06;101179.72;4972106;28;97010;-69
2021/03/15 09:48:39;;;;;;;0.28;0.28;;;10.60;92.70;;;13.80;77.07;101173.75;4963300;28;99097;-69
2021/03/15 09:51:09;;;;;;;0.10;0.10;;;10.60;92.50;;;13.38;78.64;101177.06;4972568;28;99203;-68
2021/03/15 09:53:56;;;;;;;0.28;0.28;;;10.50;92.60;;;13.23;78.77;101174.75;4969311;28;96797;-69
2021/03/15 09:56:31;;;;;;;5.68;1.45;;;10.40;92.70;;;12.93;79.96;101178.19;4969679;28;96853;-68
2021/03/15 09:59:11;;;;;;;0.03;0.03;;;10.20;92.70;;;13.00;79.48;101183.16;4967621;28;97768;-69
2021/03/15 10:01:45;;;;;;;0.10;0.10;;;10.10;92.90;;;12.65;80.14;101194.72;4970319;28;97639;-69
2021/03/15 10:04:36;;;;;;;3.40;0.73;;;10.00;92.90;;;12.66;79.71;101197.09;4970863;28;98664;-68
2021/03/15 10:07:22;;;;;;;0.00;0.00;;;9.90;93.00;;;12.50;80.59;101197.75;4972748;28;96862;-68
2021/03/15 10:10:15;;;;;;;0.40;0.38;;;9.70;93.10;;;13.03;78.96;101188.69;4973384;28;98134;-68
2021/03/15 10:13:07;;;;;;;0.40;0.40;;;9.80;93.20;;;13.24;78.27;101186.31;4976610;28;97744;-68
2021/03/15 10:15:51;;;;;;;0.00;0.00;;;9.90;93.20;;;13.02;79.54;101197.09;4966188;28;96892;-68
2021/03/15 10:18:32;;;;;;;0.13;0.13;;;9.90;93.20;;;12.95;79.14;101194.03;4968544;28;97431;-67
2021/03/15 10:21:06;;;;;;;0.07;0.07;;;9.90;93.20;;;12.79;80.01;101200.84;4966864;28;99144;-68
2021/03/15 10:23:41;;;;;;;2.85;0.85;;;9.80;93.30;;;12.75;79.98;101214.09;4963772;28;97685;-68
2021/03/15 10:26:10;;;;;;;1.25;0.25;;;9.80;93.30;;;12.37;80.59;101212.00;4968294;28;96791;-68
2021/03/15 10:28:49;;;;;;;0.10;0.10;;;9.70;93.30;;;12.20;80.95;101219.88;4970194;28;96973;-68
2021/03/15 10:31:40;;;;;;;0.00;0.00;;;9.50;93.40;;;11.91;81.34;101207.88;4969259;28;97876;-68
2021/03/15 10:34:09;;;;;;;0.00;0.00;;;9.40;93.50;;;11.69;81.94;101213.91;4974185;28;97812;-68
2021/03/15 10:36:50;;;;;;;0.20;0.20;;;9.20;93.60;;;11.60;82.61;101212.25;4986958;28;96899;-68
2021/03/15 10:39:27;;;;;;;5.13;0.65;;;9.00;93.80;;;12.25;81.54;101216.31;4970298;28;96830;-68
2021/03/15 10:41:58;;;;;;;0.10;0.10;;;9.10;94.20;;;13.10;78.88;101207.09;4970516;28;98053;-68
2021/03/15 10:44:35;;;;;;;0.00;0.00;;;9.30;94.30;;;14.22;75.75;101211.63;4969876;28;96793;-68
2021/03/15 10:47:13;;;;;;;0.13;0.13;;;9.80;94.10;;;14.10;75.93;101216.00;4970046;28;96665;-68
2021/03/15 10:49:47;;;;;;;0.80;0.70;;;10.20;93.60;;;14.01;76.53;101217.06;4972141;28;96779;-68
2021/03/15 10:52:37;;;;;;;1.48;1.33;;;10.30;93.40;;;14.47;75.73;101210.06;4971409;28;97925;-68
2021/03/15 10:55:14;;;;;;;9.32;0.32;;;10.60;93.20;;;14.95;74.63;101208.03;4972575;28;97435;-69
2021/03/15 10:58:07;;;;;;;0.10;0.10;;;10.90;93.00;;;14.75;75.20;101203.25;4970738;28;96830;-68
2021/03/15 11:00:43;;;;;;;0.05;0.05;;;11.00;92.80;;;14.70;75.75;101209.59;4971038;28;97249;-68
2021/03/15 11:03:22;;;;;;;0.10;0.10;;;11.10;92.70;;;14.35;77.23;101216.06;4971758;28;96789;-68